Time;durP1;ratioP1;P1;durP2;ratioP2;P2;SDS_P1;SDS_P2;PMS_P1;PMS_P2;Temp;Humidity;BMP_temperature;BMP_pressure;BME280_temperature;BME280_humidity;BME280_pressure;Samples;Min_cycle;Max_cycle;Signal;HPM_P1;HPM_P2
2023/12/31 00:00:00;;;;;;;18.23;8.82;;;;;;;7.48;63.63;100149.50;5015374;27;98011;-80
2023/12/31 00:02:25;;;;;;;21.13;9.65;;;;;;;7.51;63.42;100148.56;5034435;27;97148;-80
2023/12/31 00:04:51;;;;;;;21.02;10.23;;;;;;;7.48;63.02;100149.50;5016969;27;101475;-80
2023/12/31 00:07:16;;;;;;;22.13;10.38;;;;;;;7.39;63.23;100152.31;5018563;27;97398;-80
2023/12/31 00:09:42;;;;;;;17.75;8.88;;;;;;;7.34;63.38;100143.75;5052706;27;97434;-80
2023/12/31 00:12:07;;;;;;;20.02;8.98;;;;;;;7.38;63.15;100143.59;5018072;27;96889;-80
2023/12/31 00:14:33;;;;;;;23.42;9.77;;;;;;;7.28;63.22;100117.78;5013398;27;101493;-80
2023/12/31 00:16:58;;;;;;;18.55;9.38;;;;;;;7.25;63.21;100119.56;5034640;27;97299;-81
2023/12/31 00:19:24;;;;;;;17.30;8.88;;;;;;;7.33;62.42;100140.28;5034383;27;97244;-81
2023/12/31 00:21:50;;;;;;;19.95;10.13;;;;;;;7.40;62.94;100143.59;5017651;27;96872;-80
2023/12/31 00:24:15;;;;;;;21.52;10.32;;;;;;;7.43;62.88;100140.91;5016924;27;97525;-81
2023/12/31 00:26:41;;;;;;;21.42;10.48;;;;;;;7.30;63.13;100131.63;5017393;27;97415;-83
2023/12/31 00:29:10;;;;;;;20.20;9.95;;;;;;;7.25;63.06;100114.34;5017461;27;96791;-83
2023/12/31 00:31:37;;;;;;;20.30;8.70;;;;;;;7.39;62.19;100140.13;5017915;27;97354;-82
2023/12/31 00:34:03;;;;;;;15.82;9.05;;;;;;;7.09;63.09;100123.41;5004984;27;101316;-81
2023/12/31 00:36:31;;;;;;;20.25;10.45;;;;;;;7.19;63.33;100137.97;5008308;27;101436;-80
2023/12/31 00:38:56;;;;;;;19.80;10.18;;;;;;;7.03;63.06;100113.97;5016500;27;96859;-80
2023/12/31 00:41:22;;;;;;;16.65;9.35;;;;;;;7.24;62.78;100140.47;5000925;27;96948;-80
2023/12/31 00:43:47;;;;;;;20.65;10.07;;;;;;;7.21;62.97;100136.19;5033625;27;101832;-80
2023/12/31 00:46:13;;;;;;;18.98;9.50;;;;;;;7.11;62.78;100133.81;5016956;27;98361;-80
2023/12/31 00:48:39;;;;;;;18.98;10.43;;;;;;;6.96;62.51;100108.94;5017341;27;96752;-82
2023/12/31 00:51:04;;;;;;;22.00;11.20;;;;;;;6.94;62.52;100116.78;5014466;27;96902;-80
2023/12/31 00:53:30;;;;;;;20.90;10.43;;;;;;;6.96;62.80;100137.63;5016891;27;101124;-80
2023/12/31 00:55:56;;;;;;;22.60;10.20;;;;;;;6.94;63.02;100123.75;5000254;27;101683;-80
2023/12/31 00:58:22;;;;;;;22.70;10.43;;;;;;;7.00;62.77;100134.91;5033979;27;96779;-81
2023/12/31 01:00:47;;;;;;;23.70;10.75;;;;;;;6.89;62.78;100118.63;5052862;27;97897;-80
2023/12/31 01:03:13;;;;;;;22.00;10.80;;;;;;;6.97;62.92;100114.09;5048402;27;97492;-80
2023/12/31 01:05:38;;;;;;;27.58;11.05;;;;;;;7.05;63.22;100126.97;5052045;27;98471;-80
2023/12/31 01:08:04;;;;;;;21.08;10.65;;;;;;;7.03;63.42;100119.19;5016413;27;96766;-80
2023/12/31 01:10:29;;;;;;;21.33;10.75;;;;;;;7.00;63.42;100121.00;5017217;27;97184;-80
2023/12/31 01:12:55;;;;;;;23.88;10.50;;;;;;;7.02;63.68;100125.31;5016076;27;100553;-80
2023/12/31 01:15:22;;;;;;;25.10;11.30;;;;;;;6.88;63.17;100116.91;5051795;27;98106;-80
2023/12/31 01:17:48;;;;;;;20.00;10.27;;;;;;;6.95;63.65;100128.06;5014398;27;97338;-80
2023/12/31 01:20:15;;;;;;;21.27;10.68;;;;;;;7.00;63.72;100129.69;5016530;27;97101;-80
2023/12/31 01:22:41;;;;;;;23.02;11.48;;;;;;;6.80;63.20;100100.56;5016231;27;101187;-80
2023/12/31 01:25:07;;;;;;;22.17;12.00;;;;;;;7.01;63.61;100123.59;5032883;27;97928;-79
2023/12/31 01:27:32;;;;;;;25.33;11.98;;;;;;;6.93;62.84;100128.13;5015725;27;97721;-80
2023/12/31 01:29:58;;;;;;;20.67;10.15;;;;;;;7.00;63.21;100123.63;5007987;27;97596;-80
2023/12/31 01:32:23;;;;;;;23.98;11.55;;;;;;;6.94;62.97;100126.38;5032856;27;98182;-80
2023/12/31 01:34:49;;;;;;;22.75;11.48;;;;;;;6.73;63.28;100093.78;4996517;27;100815;-80
2023/12/31 01:37:15;;;;;;;25.02;11.75;;;;;;;6.91;63.22;100121.22;5016687;27;98402;-82
2023/12/31 01:39:41;;;;;;;28.10;12.27;;;;;;;6.86;63.19;100126.53;5006354;27;96884;-80
2023/12/31 01:42:07;;;;;;;20.02;10.35;;;;;;;6.80;63.94;100118.81;5016546;27;101357;-81
2023/12/31 01:44:33;;;;;;;22.73;11.63;;;;;;;6.85;63.67;100130.03;5033373;27;97928;-80
2023/12/31 01:46:59;;;;;;;22.65;11.65;;;;;;;6.88;63.30;100116.91;5000224;27;96924;-81
2023/12/31 01:49:26;;;;;;;20.45;10.82;;;;;;;6.82;63.50;100105.75;5015048;27;96926;-81
2023/12/31 01:51:52;;;;;;;23.27;11.18;;;;;;;6.84;62.91;100112.66;5028993;28;97980;-81
2023/12/31 01:54:18;;;;;;;20.23;11.05;;;;;;;6.78;63.66;100120.63;4994437;28;101243;-81
2023/12/31 01:56:44;;;;;;;18.58;9.82;;;;;;;6.55;64.74;100100.25;5031764;27;96753;-81
2023/12/31 01:59:10;;;;;;;20.77;9.80;;;;;;;6.74;64.68;100129.41;5007656;28;98311;-81
2023/12/31 02:01:36;;;;;;;20.98;10.82;;;;;;;6.51;64.53;100088.16;5012445;28;101589;-81
2023/12/31 02:04:02;;;;;;;19.80;10.38;;;;;;;6.68;64.34;100116.50;5029165;28;97993;-80
2023/12/31 02:06:28;;;;;;;23.05;11.32;;;;;;;6.73;64.06;100117.25;5013681;28;97662;-81
2023/12/31 02:08:53;;;;;;;22.95;11.93;;;;;;;6.76;64.00;100118.03;4996092;28;97404;-81
2023/12/31 02:11:19;;;;;;;24.98;11.85;;;;;;;6.62;63.65;100093.16;4996152;28;100963;-81
2023/12/31 02:13:44;;;;;;;23.63;11.35;;;;;;;6.60;63.37;100107.97;5009479;28;101122;-80
2023/12/31 02:16:14;;;;;;;22.60;11.38;;;;;;;6.51;63.54;100081.19;4995395;28;96869;-81
2023/12/31 02:18:40;;;;;;;20.00;11.50;;;;;;;6.54;62.79;100085.47;5029086;28;96796;-81
2023/12/31 02:21:06;;;;;;;22.73;11.32;;;;;;;6.58;63.00;100108.00;5012669;28;101011;-81
2023/12/31 02:23:32;;;;;;;23.20;11.32;;;;;;;6.47;63.28;100097.78;5028920;28;100733;-81
2023/12/31 02:26:08;;;;;;;20.52;10.73;;;;;;;6.55;63.04;100108.94;5012083;28;97402;-81
2023/12/31 02:28:34;;;;;;;21.73;12.23;;;;;;;6.50;63.07;100100.34;5029235;28;96761;-81
2023/12/31 02:30:59;;;;;;;22.15;10.50;;;;;;;6.45;62.90;100096.09;5030733;27;98135;-81
2023/12/31 02:33:25;;;;;;;22.45;11.23;;;;;;;6.51;62.99;100114.22;4994832;28;101638;-81
2023/12/31 02:35:51;;;;;;;20.27;11.07;;;;;;;6.27;62.37;100076.50;5010913;28;96879;-81
2023/12/31 02:38:17;;;;;;;19.90;10.98;;;;;;;6.44;62.35;100104.84;5031107;27;98709;-81
2023/12/31 02:40:42;;;;;;;25.08;12.27;;;;;;;6.39;62.48;100094.47;5031748;28;101661;-81
2023/12/31 02:43:08;;;;;;;22.30;12.13;;;;;;;6.39;62.52;100096.25;5015713;28;98448;-81
2023/12/31 02:45:33;;;;;;;24.95;11.23;;;;;;;6.30;62.54;100081.63;5015705;28;96903;-81
2023/12/31 02:47:59;;;;;;;16.80;9.50;;;;;;;6.40;62.32;100098.81;5015730;28;97207;-81
2023/12/31 02:50:25;;;;;;;24.13;11.98;;;;;;;6.22;62.36;100080.94;5015554;28;101813;-81
2023/12/31 02:52:53;;;;;;;19.33;10.32;;;;;;;6.30;62.50;100103.34;5031958;28;97633;-81
2023/12/31 02:55:19;;;;;;;18.47;9.53;;;;;;;6.07;63.07;100072.53;5015870;28;97152;-81
2023/12/31 02:57:45;;;;;;;18.53;10.33;;;;;;;6.17;63.19;100093.19;5032669;28;96756;-81
2023/12/31 03:00:11;;;;;;;16.88;8.70;;;;;;;6.22;62.96;100088.75;5015325;28;101570;-81
2023/12/31 03:02:37;;;;;;;17.73;9.83;;;;;;;6.22;63.13;100091.34;4997939;28;101181;-80
2023/12/31 03:05:03;;;;;;;18.60;10.63;;;;;;;6.12;62.95;100085.47;5031923;28;97064;-81
2023/12/31 03:07:28;;;;;;;20.30;10.20;;;;;;;6.11;63.29;100082.00;5032585;28;97591;-81
2023/12/31 03:09:54;;;;;;;22.20;10.57;;;;;;;6.16;62.86;100092.34;5014385;28;98055;-80
2023/12/31 03:12:19;;;;;;;22.73;9.43;;;;;;;6.13;62.88;100088.03;4998539;28;101640;-81
2023/12/31 03:14:45;;;;;;;18.15;9.80;;;;;;;6.16;62.35;100089.72;4996874;28;97423;-80
2023/12/31 03:17:10;;;;;;;15.38;9.13;;;;;;;6.08;62.94;100078.63;5015784;28;96983;-80
2023/12/31 03:19:36;;;;;;;19.87;9.30;;;;;;;6.02;62.36;100068.28;5031542;28;98037;-81
2023/12/31 03:22:03;;;;;;;17.40;9.37;;;;;;;5.96;63.35;100078.81;4994585;28;101770;-81
2023/12/31 03:24:29;;;;;;;17.92;9.15;;;;;;;5.98;62.75;100077.06;5033105;27;97323;-81
2023/12/31 03:26:54;;;;;;;17.27;9.32;;;;;;;5.94;63.03;100078.03;5015306;28;96927;-80
2023/12/31 03:29:19;;;;;;;17.02;9.50;;;;;;;5.90;62.73;100062.41;5011557;28;97990;-81
2023/12/31 03:31:45;;;;;;;19.13;10.10;;;;;;;5.84;62.88;100075.53;5014819;28;98073;-81
2023/12/31 03:34:10;;;;;;;18.73;10.57;;;;;;;5.95;62.55;100084.94;5014553;28;96890;-80
2023/12/31 03:36:36;;;;;;;17.55;10.02;;;;;;;5.84;62.47;100064.25;5032357;28;96885;-80
2023/12/31 03:39:02;;;;;;;22.23;10.23;;;;;;;5.92;62.96;100083.22;4997729;28;101204;-80
2023/12/31 03:41:28;;;;;;;18.77;10.20;;;;;;;5.73;62.98;100058.38;5017700;28;97561;-80
2023/12/31 03:43:54;;;;;;;18.73;10.10;;;;;;;5.92;62.34;100077.16;5032683;28;97333;-81
2023/12/31 03:46:20;;;;;;;15.45;9.07;;;;;;;5.78;62.97;100072.19;5016148;28;97148;-81
2023/12/31 03:48:45;;;;;;;19.60;10.57;;;;;;;5.80;63.07;100073.88;5014201;28;97920;-81
2023/12/31 03:51:11;;;;;;;19.40;10.60;;;;;;;5.65;62.86;100064.59;5034112;27;97658;-80
2023/12/31 03:53:38;;;;;;;19.48;10.25;;;;;;;5.65;63.25;100069.81;5017315;27;97526;-81
2023/12/31 03:56:04;;;;;;;21.30;11.40;;;;;;;5.64;63.66;100069.81;5003904;27;97720;-80
2023/12/31 03:58:29;;;;;;;23.00;10.80;;;;;;;5.73;63.56;100074.00;5048843;27;98879;-81
2023/12/31 04:00:55;;;;;;;19.13;10.23;;;;;;;5.73;63.07;100067.09;5015738;27;100902;-80
2023/12/31 04:03:20;;;;;;;20.40;10.87;;;;;;;5.59;62.88;100053.44;5032376;27;98111;-80
2023/12/31 04:05:46;;;;;;;22.13;11.73;;;;;;;5.51;63.42;100063.13;5034792;27;96912;-80
2023/12/31 04:08:11;;;;;;;22.07;11.97;;;;;;;5.51;63.83;100069.19;5017361;27;98120;-80
2023/12/31 04:10:37;;;;;;;22.47;10.70;;;;;;;5.50;63.12;100054.47;5034927;27;97721;-80
2023/12/31 04:13:02;;;;;;;20.60;10.73;;;;;;;5.66;63.05;100073.28;5034285;27;97225;-80
2023/12/31 04:15:28;;;;;;;17.77;10.07;;;;;;;5.63;62.70;100060.31;5017571;27;96865;-80
2023/12/31 04:17:54;;;;;;;20.97;10.67;;;;;;;5.49;62.48;100047.53;5016438;27;101337;-80
2023/12/31 04:20:19;;;;;;;18.57;10.00;;;;;;;5.49;62.72;100057.09;5034207;27;98425;-80
2023/12/31 04:22:45;;;;;;;22.73;11.07;;;;;;;5.57;63.59;100069.09;5000715;27;96844;-80
2023/12/31 04:25:10;;;;;;;17.33;10.23;;;;;;;5.59;64.17;100064.72;5017047;27;96961;-82
2023/12/31 04:27:38;;;;;;;16.70;9.63;;;;;;;5.52;64.20;100051.81;5052564;27;98324;-82
2023/12/31 04:30:06;;;;;;;16.98;10.02;;;;;;;5.34;65.54;100060.81;5015845;27;97907;-82
2023/12/31 04:32:31;;;;;;;18.00;9.70;;;;;;;5.51;64.65;100063.13;5000438;27;97352;-82
2023/12/31 04:34:57;;;;;;;22.53;11.07;;;;;;;5.27;64.92;100043.59;5034289;27;96866;-82
2023/12/31 04:37:22;;;;;;;18.57;10.87;;;;;;;5.33;65.40;100061.72;5017304;27;100951;-82
2023/12/31 04:39:48;;;;;;;18.30;9.60;;;;;;;5.21;65.60;100058.41;4993905;28;101366;-82
2023/12/31 04:42:14;;;;;;;17.20;9.53;;;;;;;4.83;66.42;100014.81;5034032;27;97573;-82
2023/12/31 04:44:40;;;;;;;19.90;10.27;;;;;;;4.93;66.92;100047.56;5033502;27;97134;-81
2023/12/31 04:47:06;;;;;;;19.03;10.63;;;;;;;5.10;66.57;100038.66;5052446;27;98112;-82
2023/12/31 04:49:32;;;;;;;20.73;10.65;;;;;;;4.95;66.37;100006.78;5002026;27;101379;-82
2023/12/31 04:51:58;;;;;;;22.53;10.73;;;;;;;5.27;65.25;100023.63;5033622;27;97441;-82
2023/12/31 04:54:23;;;;;;;18.03;10.20;;;;;;;5.28;64.58;100021.88;5014871;27;97045;-82
2023/12/31 04:56:49;;;;;;;18.57;10.77;;;;;;;5.27;64.58;100009.75;5017096;27;101008;-81
2023/12/31 04:59:14;;;;;;;22.07;12.33;;;;;;;5.17;64.66;100022.03;5016500;27;98025;-80
2023/12/31 05:01:39;;;;;;;26.90;12.97;;;;;;;5.24;65.55;100041.91;5015940;27;96761;-80
2023/12/31 05:04:05;;;;;;;18.67;11.10;;;;;;;5.27;65.23;100044.44;5012659;27;96970;-80
2023/12/31 05:06:30;;;;;;;21.67;11.13;;;;;;;5.22;64.95;100021.09;5033349;27;101053;-80
2023/12/31 05:08:56;;;;;;;21.87;11.17;;;;;;;5.37;64.16;100037.31;5015949;27;101344;-82
2023/12/31 05:11:23;;;;;;;17.73;10.57;;;;;;;5.19;64.09;100010.72;5034159;27;96877;-82
2023/12/31 05:13:49;;;;;;;21.40;10.83;;;;;;;5.19;64.92;100044.56;5051987;27;97452;-82
2023/12/31 05:16:14;;;;;;;16.23;10.87;;;;;;;5.20;65.35;100033.25;5033973;27;98053;-82
2023/12/31 05:18:41;;;;;;;22.70;11.07;;;;;;;5.14;65.51;100027.31;5015854;27;99189;-82
2023/12/31 05:21:06;;;;;;;23.07;11.50;;;;;;;4.89;65.68;99996.50;5034092;27;97017;-82
2023/12/31 05:23:31;;;;;;;25.60;12.43;;;;;;;5.24;65.73;100039.28;5017223;27;97138;-82
2023/12/31 05:25:57;;;;;;;18.97;11.47;;;;;;;5.07;66.18;100003.13;5033797;27;97620;-82
2023/12/31 05:28:23;;;;;;;20.60;11.37;;;;;;;4.87;66.68;100002.59;5033775;27;97322;-82
2023/12/31 05:30:48;;;;;;;21.83;12.10;;;;;;;5.03;66.97;100016.22;5033936;27;96841;-81
2023/12/31 05:33:14;;;;;;;21.50;11.45;;;;;;;4.79;67.11;100001.84;5033276;27;97045;-82
2023/12/31 05:35:39;;;;;;;23.50;12.07;;;;;;;4.85;66.55;99993.94;5051943;27;97433;-82
2023/12/31 05:38:05;;;;;;;20.60;12.00;;;;;;;5.06;66.61;100014.44;5016094;27;100755;-82
2023/12/31 05:40:30;;;;;;;22.77;11.77;;;;;;;5.02;66.69;100007.53;5052341;27;96697;-82
2023/12/31 05:42:56;;;;;;;19.47;12.07;;;;;;;4.89;66.65;99988.69;5026204;27;97093;-82
2023/12/31 05:45:22;;;;;;;22.30;12.60;;;;;;;4.87;66.97;99990.44;5013041;28;99481;-82
2023/12/31 05:47:47;;;;;;;24.20;12.30;;;;;;;4.74;67.77;99982.00;5029484;27;101264;-82
2023/12/31 05:50:16;;;;;;;21.33;12.23;;;;;;;4.73;67.63;99988.06;5032372;27;97257;-82
2023/12/31 05:52:42;;;;;;;22.63;12.50;;;;;;;4.71;67.82;100002.84;4995963;27;97316;-80
2023/12/31 05:55:08;;;;;;;23.87;13.43;;;;;;;4.83;67.90;100004.41;5032634;27;98035;-80
2023/12/31 05:57:34;;;;;;;18.83;11.57;;;;;;;4.95;67.71;99998.13;4999086;27;101196;-80
2023/12/31 06:00:00;;;;;;;20.47;12.43;;;;;;;5.03;67.25;100008.41;5034127;27;98034;-80
2023/12/31 06:02:25;;;;;;;22.90;12.53;;;;;;;4.95;67.41;100000.75;5013822;27;96932;-80
2023/12/31 06:04:51;;;;;;;26.47;12.93;;;;;;;4.87;67.79;99994.78;5023258;27;97507;-80
2023/12/31 06:07:17;;;;;;;20.70;13.17;;;;;;;4.60;67.83;99962.28;5016300;27;97635;-80
2023/12/31 06:09:42;;;;;;;24.93;13.83;;;;;;;4.68;68.04;99986.41;5034001;27;96869;-80
2023/12/31 06:12:08;;;;;;;21.30;12.77;;;;;;;4.54;68.24;99958.91;5016845;27;97210;-80
2023/12/31 06:14:33;;;;;;;21.00;12.20;;;;;;;4.56;68.72;99968.41;4999294;27;101281;-80
2023/12/31 06:16:59;;;;;;;23.90;13.13;;;;;;;4.56;69.10;99961.44;5033144;27;97408;-80
2023/12/31 06:19:25;;;;;;;23.40;12.03;;;;;;;4.53;68.69;99938.97;5033288;27;96735;-80
2023/12/31 06:21:51;;;;;;;21.03;11.50;;;;;;;4.56;68.41;99916.41;5016161;27;96807;-80
2023/12/31 06:24:17;;;;;;;22.20;12.37;;;;;;;4.76;68.42;99955.94;5029523;27;97467;-80
2023/12/31 06:26:42;;;;;;;16.83;11.30;;;;;;;4.72;68.10;99944.75;5031906;27;97382;-80
2023/12/31 06:29:08;;;;;;;23.67;12.27;;;;;;;4.58;68.79;99948.44;5015944;27;97090;-80
2023/12/31 06:31:33;;;;;;;20.83;12.37;;;;;;;4.54;68.94;99938.09;5015201;27;97402;-80
2023/12/31 06:33:58;;;;;;;21.80;11.93;;;;;;;4.51;69.14;99939.91;5006918;27;101209;-80
2023/12/31 06:36:24;;;;;;;21.27;11.87;;;;;;;4.45;68.94;99932.16;5032299;27;97620;-80
2023/12/31 06:38:49;;;;;;;25.53;12.50;;;;;;;4.39;68.88;99937.44;5030725;27;97869;-80
2023/12/31 06:41:18;;;;;;;24.23;13.00;;;;;;;4.39;69.35;99942.66;5024587;27;96810;-80
2023/12/31 06:43:44;;;;;;;24.13;12.80;;;;;;;4.29;69.26;99935.00;5013964;27;101492;-80
2023/12/31 06:46:10;;;;;;;26.33;14.00;;;;;;;4.27;69.44;99939.34;5032650;27;97612;-79
2023/12/31 06:48:35;;;;;;;25.40;12.60;;;;;;;4.28;69.45;99924.63;5026996;27;96735;-79
2023/12/31 06:51:01;;;;;;;29.60;14.20;;;;;;;4.33;68.99;99928.00;5016986;27;97308;-79
2023/12/31 06:53:26;;;;;;;25.20;12.93;;;;;;;4.21;69.40;99931.66;5031650;27;97666;-79
2023/12/31 06:55:52;;;;;;;32.00;14.80;;;;;;;4.13;69.29;99912.72;5012734;27;100590;-79
2023/12/31 06:58:17;;;;;;;27.03;14.73;;;;;;;4.23;69.63;99921.25;5016698;27;96797;-80
2023/12/31 07:00:43;;;;;;;24.13;13.67;;;;;;;4.25;69.26;99930.75;5014333;27;98199;-79
2023/12/31 07:03:08;;;;;;;27.20;13.60;;;;;;;4.22;69.23;99925.59;5011335;28;101528;-79
2023/12/31 07:05:34;;;;;;;27.03;14.97;;;;;;;4.23;69.13;99919.50;5033824;27;97351;-82
2023/12/31 07:07:59;;;;;;;25.50;13.73;;;;;;;4.27;69.25;99918.56;4987658;27;96907;-80
2023/12/31 07:10:25;;;;;;;29.30;13.57;;;;;;;4.31;69.10;99917.66;5039755;27;97187;-79
2023/12/31 07:12:52;;;;;;;28.80;15.67;;;;;;;4.36;68.67;99925.34;5015306;27;97542;-82
2023/12/31 07:15:18;;;;;;;25.50;14.17;;;;;;;4.14;69.25;99917.03;5018642;27;98039;-80
2023/12/31 07:17:43;;;;;;;26.67;14.13;;;;;;;4.13;69.23;99928.31;5019589;27;97260;-79
2023/12/31 07:20:09;;;;;;;29.37;14.43;;;;;;;4.20;69.21;99937.72;5018105;27;97200;-79
2023/12/31 07:22:37;;;;;;;28.90;14.40;;;;;;;4.22;68.95;99909.16;5023651;28;101313;-80
2023/12/31 07:25:04;;;;;;;30.57;15.13;;;;;;;4.24;69.14;99920.34;5010863;27;97335;-80
2023/12/31 07:27:30;;;;;;;26.47;14.03;;;;;;;4.05;69.35;99907.63;5011488;28;97073;-81
2023/12/31 07:29:55;;;;;;;27.80;14.77;;;;;;;4.13;69.71;99911.84;5021599;27;96933;-80
2023/12/31 07:32:22;;;;;;;26.93;13.83;;;;;;;4.18;69.69;99915.25;5019273;27;101014;-80
2023/12/31 07:34:47;;;;;;;26.70;14.17;;;;;;;4.06;69.93;99898.09;4993506;27;101554;-80
2023/12/31 07:37:13;;;;;;;28.33;15.07;;;;;;;4.02;69.74;99881.72;4985643;28;97325;-80
2023/12/31 07:39:41;;;;;;;28.93;13.70;;;;;;;4.12;69.89;99904.94;5020822;27;97812;-80
2023/12/31 07:42:06;;;;;;;25.43;13.80;;;;;;;4.21;69.88;99897.88;5009192;28;101162;-80
2023/12/31 07:44:32;;;;;;;28.47;14.17;;;;;;;4.28;69.20;99891.72;4997998;27;101033;-80
2023/12/31 07:46:58;;;;;;;27.07;14.30;;;;;;;4.32;69.39;99885.56;5011877;27;97393;-79
2023/12/31 07:49:24;;;;;;;31.33;14.63;;;;;;;4.42;69.13;99888.91;5006439;27;96840;-81
2023/12/31 07:51:50;;;;;;;23.73;12.93;;;;;;;4.56;68.72;99891.25;5013220;27;101228;-79
2023/12/31 07:54:16;;;;;;;26.97;13.50;;;;;;;4.53;68.16;99850.56;5006774;27;101854;-80
2023/12/31 07:56:41;;;;;;;23.93;12.50;;;;;;;4.93;67.72;99891.50;5013955;27;96759;-80
2023/12/31 07:59:08;;;;;;;25.07;13.43;;;;;;;5.12;67.28;99891.16;5009716;27;96863;-80
2023/12/31 08:01:34;;;;;;;28.33;13.27;;;;;;;5.18;66.93;99884.13;4996155;27;101479;-80
2023/12/31 08:03:59;;;;;;;25.23;13.67;;;;;;;5.21;66.60;99884.06;5012688;27;97576;-80
2023/12/31 08:06:26;;;;;;;29.13;13.67;;;;;;;5.39;65.79;99862.00;5025494;28;97094;-80
2023/12/31 08:08:52;;;;;;;26.37;13.47;;;;;;;5.78;65.14;99882.91;5008066;27;97423;-81
2023/12/31 08:11:20;;;;;;;25.20;13.90;;;;;;;5.82;65.24;99878.50;4989297;28;101336;-81
2023/12/31 08:13:46;;;;;;;22.13;12.40;;;;;;;5.81;65.35;99884.59;5014153;27;97395;-81
2023/12/31 08:16:12;;;;;;;27.52;14.50;;;;;;;5.87;64.75;99869.66;4979799;27;96795;-80
2023/12/31 08:18:38;;;;;;;28.15;14.40;;;;;;;5.64;64.95;99885.81;4984726;27;97272;-80
2023/12/31 08:21:04;;;;;;;28.60;13.88;;;;;;;5.73;65.20;99882.16;5035434;27;97450;-81
2023/12/31 08:23:29;;;;;;;25.27;13.87;;;;;;;5.65;64.80;99851.06;5025005;27;97792;-82
2023/12/31 08:25:55;;;;;;;24.57;12.70;;;;;;;5.66;65.26;99878.81;5011994;27;97367;-82
2023/12/31 08:28:22;;;;;;;29.40;12.70;;;;;;;5.64;65.40;99864.09;5041927;27;98220;-81
2023/12/31 08:30:48;;;;;;;22.20;12.80;;;;;;;5.77;65.24;99875.13;5038988;27;100720;-81
2023/12/31 08:33:13;;;;;;;21.90;12.20;;;;;;;5.90;64.35;99854.00;5018740;27;97347;-81
2023/12/31 08:35:40;;;;;;;23.83;12.47;;;;;;;5.80;64.87;99875.91;4990210;28;97347;-80
2023/12/31 08:38:06;;;;;;;19.27;11.18;;;;;;;5.80;65.06;99880.28;5009210;27;96845;-81
2023/12/31 08:40:31;;;;;;;25.30;11.73;;;;;;;5.71;65.07;99872.66;5018334;27;97898;-80
2023/12/31 08:42:57;;;;;;;21.52;12.05;;;;;;;5.55;65.51;99848.66;5008502;27;101454;-82
2023/12/31 08:45:23;;;;;;;25.77;13.13;;;;;;;5.75;65.09;99862.13;5012047;28;97133;-82
2023/12/31 08:47:49;;;;;;;21.77;11.97;;;;;;;5.81;64.95;99868.94;5018530;27;96983;-82
2023/12/31 08:50:15;;;;;;;26.33;11.23;;;;;;;6.07;64.38;99864.03;4989107;27;100628;-82
2023/12/31 08:52:43;;;;;;;28.10;12.85;;;;;;;6.26;63.92;99871.47;4992912;27;100968;-82
2023/12/31 08:55:09;;;;;;;21.90;11.57;;;;;;;6.22;63.65;99848.94;5028084;27;97268;-82
2023/12/31 08:57:35;;;;;;;25.88;12.93;;;;;;;6.56;62.69;99862.88;5023498;27;97982;-83
2023/12/31 09:00:03;;;;;;;22.25;12.10;;;;;;;6.74;61.97;99856.34;5014470;27;100811;-83
2023/12/31 09:02:29;;;;;;;23.27;12.10;;;;;;;6.87;61.77;99843.00;4998000;27;101334;-83
2023/12/31 09:04:54;;;;;;;23.73;12.63;;;;;;;7.38;61.19;99858.97;5001329;27;96810;-84
2023/12/31 09:07:20;;;;;;;27.80;12.77;;;;;;;7.31;60.55;99859.19;5012157;27;96862;-84
2023/12/31 09:09:45;;;;;;;23.35;12.38;;;;;;;7.66;60.43;99838.13;5019746;27;97384;-84
2023/12/31 09:12:11;;;;;;;22.02;11.90;;;;;;;7.59;60.14;99830.50;5031256;27;98398;-83
2023/12/31 09:14:36;;;;;;;21.05;11.93;;;;;;;7.71;60.00;99845.84;5031490;27;96798;-83
2023/12/31 09:17:02;;;;;;;30.73;12.20;;;;;;;8.27;59.38;99842.38;5044075;27;96976;-83
2023/12/31 09:19:27;;;;;;;31.63;14.63;;;;;;;8.18;59.74;99847.91;5015544;27;101119;-79
2023/12/31 09:21:53;;;;;;;28.80;13.70;;;;;;;7.73;59.95;99828.34;5028260;27;97441;-79
2023/12/31 09:24:18;;;;;;;22.55;12.93;;;;;;;7.84;59.41;99838.50;5018537;27;97563;-79
2023/12/31 09:26:44;;;;;;;21.92;11.63;;;;;;;7.51;60.01;99840.34;5030708;27;96850;-78
2023/12/31 09:29:09;;;;;;;21.23;11.98;;;;;;;7.76;59.24;99830.03;5010586;27;100963;-78
2023/12/31 09:31:37;;;;;;;21.10;11.65;;;;;;;7.92;59.03;99828.66;5042419;27;97928;-79
2023/12/31 09:34:03;;;;;;;21.55;11.38;;;;;;;8.10;58.96;99828.06;5027403;28;97072;-78
2023/12/31 09:36:28;;;;;;;21.38;11.10;;;;;;;7.96;58.86;99825.03;5019404;27;97199;-79
2023/12/31 09:38:54;;;;;;;24.35;11.75;;;;;;;7.80;59.84;99809.00;5011606;28;101241;-77
2023/12/31 09:41:24;;;;;;;21.95;11.02;;;;;;;8.08;58.91;99815.94;5016043;27;99929;-79
2023/12/31 09:43:56;;;;;;;32.03;10.80;;;;;;;7.97;59.39;99804.97;5023432;27;96833;-80
2023/12/31 09:46:21;;;;;;;;;;;;;;;7.65;61.44;99797.25;5021737;27;97210;-78
2023/12/31 09:48:48;;;;;;;19.45;11.15;;;;;;;7.31;60.80;99779.13;5021050;27;97397;-80
2023/12/31 09:51:17;;;;;;;27.35;12.50;;;;;;;7.34;61.71;99805.13;4998426;27;101199;-82
2023/12/31 09:53:45;;;;;;;21.80;11.73;;;;;;;7.15;61.77;99799.56;5001303;27;97195;-82
2023/12/31 09:56:15;;;;;;;25.70;11.55;;;;;;;7.34;61.84;99793.84;5035555;27;97442;-83
2023/12/31 09:58:41;;;;;;;23.20;11.10;;;;;;;7.18;61.66;99775.97;4989206;27;102038;-82
2023/12/31 10:01:06;;;;;;;23.50;10.75;;;;;;;6.90;62.84;99768.09;5034668;27;97568;-84
2023/12/31 10:03:32;;;;;;;21.70;10.18;;;;;;;7.03;62.40;99771.22;5017508;27;97188;-83
2023/12/31 10:05:59;;;;;;;23.33;10.70;;;;;;;7.16;62.28;99751.69;4992946;27;97627;-82
2023/12/31 10:08:24;;;;;;;20.13;11.02;;;;;;;7.12;61.84;99757.03;5015040;27;101428;-84
2023/12/31 10:10:53;;;;;;;21.70;11.13;;;;;;;7.48;61.84;99762.94;5013731;27;99437;-82
2023/12/31 10:13:19;;;;;;;18.67;10.10;;;;;;;7.64;60.58;99755.47;5027074;27;96808;-79
2023/12/31 10:15:45;;;;;;;19.88;10.85;;;;;;;7.47;60.96;99764.69;5028618;27;96839;-77
2023/12/31 10:18:11;;;;;;;21.25;11.63;;;;;;;7.46;60.41;99769.97;5033800;27;98047;-78
2023/12/31 10:20:37;;;;;;;20.20;9.90;;;;;;;7.43;60.42;99752.63;5017146;27;99063;-78
2023/12/31 10:23:03;;;;;;;21.92;10.70;;;;;;;7.42;60.88;99750.09;5017594;27;97373;-81
2023/12/31 10:25:29;;;;;;;21.30;11.65;;;;;;;6.96;61.43;99747.03;5054777;27;98243;-82
2023/12/31 10:27:55;;;;;;;22.13;10.13;;;;;;;6.89;62.19;99753.31;5030134;27;97949;-88
2023/12/31 10:30:21;;;;;;;19.48;10.45;;;;;;;6.81;62.47;99734.44;5031524;27;98413;-78
2023/12/31 10:32:48;;;;;;;21.30;10.70;;;;;;;7.14;62.20;99745.66;5051611;27;96946;-82
2023/12/31 10:35:19;;;;;;;23.63;11.90;;;;;;;6.97;62.23;99733.09;5031643;27;97421;-79
2023/12/31 10:37:44;;;;;;;19.02;10.38;;;;;;;6.90;62.16;99723.75;5025676;27;98281;-81
2023/12/31 10:40:17;;;;;;;20.40;11.25;;;;;;;7.11;61.71;99704.00;5028193;27;97370;-79
2023/12/31 10:42:58;;;;;;;25.33;12.02;;;;;;;6.95;62.14;99695.78;5030854;27;97233;-79
2023/12/31 10:45:25;;;;;;;22.63;12.20;;;;;;;7.26;61.94;99728.78;5019799;27;97300;-79
2023/12/31 10:47:52;;;;;;;23.25;11.52;;;;;;;7.28;61.69;99713.94;5028328;27;101457;-78
2023/12/31 10:50:25;;;;;;;21.88;11.88;;;;;;;7.43;61.76;99715.22;5026255;27;98025;-81
2023/12/31 10:52:53;;;;;;;22.48;12.07;;;;;;;7.37;61.53;99708.44;5011383;27;96855;-81
2023/12/31 10:55:20;;;;;;;24.05;11.77;;;;;;;7.42;61.68;99700.47;5022264;27;96884;-87
2023/12/31 10:57:46;;;;;;;23.15;12.38;;;;;;;7.46;62.03;99696.84;5014931;27;101300;-80
2023/12/31 11:00:13;;;;;;;24.70;12.10;;;;;;;7.31;61.89;99690.34;5018195;27;97850;-83
2023/12/31 11:02:39;;;;;;;23.40;12.00;;;;;;;7.30;62.36;99680.81;5014635;27;96799;-89
2023/12/31 11:05:06;;;;;;;23.45;13.00;;;;;;;7.52;61.95;99696.66;5010445;27;96861;-78
2023/12/31 11:07:34;;;;;;;23.63;13.27;;;;;;;7.40;62.52;99679.59;5036197;27;98244;-78
2023/12/31 11:10:00;;;;;;;28.58;13.52;;;;;;;7.81;62.06;99681.81;5024604;27;97754;-77
2023/12/31 11:12:25;;;;;;;26.67;12.95;;;;;;;7.43;61.96;99665.59;5017943;27;97663;-77